Dalton City, Illinois
Current Conditions -  °F | °C
As of 2:54 PM on Thursday 18 Dec 2014 (Local Time) from KDEC Reporting Station
Haze Haze  
Wind Chill: 29°   Ceiling: 1300
Heat Index: 29°   Visibility: 5mi
Dew Point: 23°   Wind: 0mph
Humidity: 78%   Direction: NA
Pressure: 30.24"   Gusts: NA
Location:  39.71°N, 88.8°W
Report Text: KDEC 182054Z 00000KT 5SM HZ OVC013 M02/M05 A3024 RMK AO2 SLP250 60000 T10171050 55001
Loading
Personal Weather Stations






























Interactive Weather Map New forecast layout! Learn more

10-Day Weather Forecast

Advertisements
Track Severe Weather on mobile